Time;durP1;ratioP1;P1;durP2;ratioP2;P2;SDS_P1;SDS_P2;PMS_P1;PMS_P2;Temp;Humidity;BMP_temperature;BMP_pressure;BME280_temperature;BME280_humidity;BME280_pressure;Samples;Min_cycle;Max_cycle;Signal;HPM_P1;HPM_P2
2023/06/22 00:01:54;;;;;;;3.10;2.80;;;24.00;99.90;;;;;;5054217;28;20990;-70
2023/06/22 00:04:20;;;;;;;2.80;2.60;;;24.00;99.90;;;;;;5054084;28;20521;-70
2023/06/22 00:06:45;;;;;;;3.80;2.80;;;24.00;99.90;;;;;;5053554;28;20274;-70
2023/06/22 00:09:11;;;;;;;2.90;2.70;;;24.00;99.90;;;;;;5054091;28;20174;-70
2023/06/22 00:11:37;;;;;;;2.47;2.27;;;24.10;99.90;;;;;;5054005;28;20648;-70
2023/06/22 00:14:04;;;;;;;3.10;2.77;;;24.00;99.90;;;;;;5054017;28;20178;-71
2023/06/22 00:16:31;;;;;;;3.10;2.50;;;24.00;99.90;;;;;;5053545;28;20533;-70
2023/06/22 00:19:00;;;;;;;2.87;2.40;;;24.00;99.90;;;;;;5053725;28;20441;-70
2023/06/22 00:21:28;;;;;;;3.27;2.80;;;24.00;99.90;;;;;;5053658;28;20467;-70
2023/06/22 00:23:53;;;;;;;3.03;2.73;;;24.10;99.90;;;;;;5053840;28;20394;-70
2023/06/22 00:26:20;;;;;;;3.13;2.83;;;24.00;99.90;;;;;;5053298;28;20470;-70
2023/06/22 00:28:46;;;;;;;3.57;2.67;;;24.10;99.90;;;;;;5053755;28;20167;-70
2023/06/22 00:31:11;;;;;;;2.47;2.27;;;24.10;99.90;;;;;;5053687;28;20393;-70
2023/06/22 00:33:37;;;;;;;3.30;2.50;;;24.10;99.90;;;;;;5053660;28;20174;-70
2023/06/22 00:36:03;;;;;;;3.30;3.00;;;24.10;99.90;;;;;;5053203;28;20190;-70
2023/06/22 00:38:29;;;;;;;3.40;2.87;;;24.10;99.90;;;;;;5053383;28;20233;-70
2023/06/22 00:40:54;;;;;;;3.10;2.80;;;24.10;99.90;;;;;;5053512;28;20405;-70
2023/06/22 00:43:20;;;;;;;2.43;2.23;;;24.10;99.90;;;;;;5053334;28;20220;-70
2023/06/22 00:45:45;;;;;;;3.27;2.60;;;24.10;99.90;;;;;;5053032;28;20857;-70
2023/06/22 00:48:12;;;;;;;3.50;2.50;;;24.00;99.90;;;;;;5053308;28;20232;-70
2023/06/22 00:50:38;;;;;;;2.60;2.33;;;24.10;99.90;;;;;;5053089;28;20171;-70
2023/06/22 00:53:09;;;;;;;4.60;3.20;;;24.00;99.90;;;;;;5053238;28;20475;-70
2023/06/22 00:55:43;;;;;;;3.70;2.80;;;24.00;99.90;;;;;;5051543;28;20417;-70
2023/06/22 00:58:10;;;;;;;4.73;3.03;;;24.00;99.90;;;;;;5053003;28;20952;-69
2023/06/22 01:00:36;;;;;;;3.40;3.10;;;24.00;99.90;;;;;;5052979;28;20463;-69
2023/06/22 01:03:03;;;;;;;2.90;2.60;;;23.90;99.90;;;;;;5052996;28;20997;-70
2023/06/22 01:05:30;;;;;;;3.53;2.47;;;23.90;99.90;;;;;;5052472;28;20409;-70
2023/06/22 01:08:01;;;;;;;4.50;2.40;;;23.90;99.90;;;;;;5052855;28;20440;-69
2023/06/22 01:10:41;;;;;;;3.83;3.13;;;23.90;99.90;;;;;;5052812;28;20451;-70
2023/06/22 01:13:16;;;;;;;3.40;3.10;;;23.80;99.90;;;;;;5052898;28;20405;-70
2023/06/22 01:15:49;;;;;;;3.20;2.90;;;23.80;99.90;;;;;;5052524;28;20421;-70
2023/06/22 01:18:18;;;;;;;4.03;2.63;;;23.80;99.90;;;;;;5051401;28;20459;-70
2023/06/22 01:20:44;;;;;;;3.03;2.40;;;23.80;99.90;;;;;;5052676;28;20393;-70
2023/06/22 01:23:31;;;;;;;2.60;2.40;;;23.80;99.90;;;;;;5052702;28;20737;-70
2023/06/22 01:26:18;;;;;;;4.07;2.63;;;23.80;99.90;;;;;;5052212;28;20964;-70
2023/06/22 01:28:47;;;;;;;3.40;2.60;;;23.80;99.90;;;;;;5052537;28;20400;-70
2023/06/22 01:31:17;;;;;;;3.00;2.70;;;23.80;99.90;;;;;;5052534;28;20806;-70
2023/06/22 01:33:46;;;;;;;2.40;2.00;;;23.80;99.90;;;;;;5052476;28;20412;-69
2023/06/22 01:36:13;;;;;;;5.37;2.83;;;23.80;99.90;;;;;;5052044;28;20470;-70
2023/06/22 01:38:39;;;;;;;2.43;2.23;;;23.80;99.90;;;;;;5051832;28;20979;-70
2023/06/22 01:41:05;;;;;;;4.20;2.90;;;23.80;99.90;;;;;;5052406;28;20868;-70
2023/06/22 01:43:31;;;;;;;3.60;2.70;;;23.80;99.90;;;;;;5052290;28;20429;-70
2023/06/22 01:45:58;;;;;;;3.03;2.33;;;23.80;99.90;;;;;;5051860;28;20498;-71
2023/06/22 01:48:25;;;;;;;2.70;2.50;;;23.80;99.90;;;;;;5052104;28;20478;-70
2023/06/22 01:50:53;;;;;;;4.90;2.97;;;23.80;99.90;;;;;;5052176;28;20823;-70
2023/06/22 01:53:20;;;;;;;2.97;2.57;;;23.80;99.90;;;;;;5052113;28;20764;-70
2023/06/22 01:55:45;;;;;;;2.50;2.30;;;23.80;99.90;;;;;;5051750;28;20433;-70
2023/06/22 01:58:11;;;;;;;6.67;3.30;;;23.80;99.90;;;;;;5052074;28;20803;-70
2023/06/22 02:00:40;;;;;;;2.63;2.43;;;23.80;99.90;;;;;;5052060;28;20654;-70
2023/06/22 02:03:11;;;;;;;6.30;3.53;;;23.80;99.90;;;;;;5051965;28;20178;-70
2023/06/22 02:05:58;;;;;;;2.97;2.63;;;23.70;99.90;;;;;;5051549;28;20430;-70
2023/06/22 02:08:28;;;;;;;2.90;2.70;;;23.70;99.90;;;;;;5051882;28;20841;-70
2023/06/22 02:10:55;;;;;;;4.53;2.90;;;23.70;99.90;;;;;;5051937;28;20401;-70
2023/06/22 02:13:24;;;;;;;3.63;2.90;;;23.70;99.90;;;;;;5051849;28;20401;-70
2023/06/22 02:15:50;;;;;;;3.40;2.83;;;23.70;99.90;;;;;;5051463;28;20417;-70
2023/06/22 02:18:15;;;;;;;2.40;2.20;;;23.70;99.90;;;;;;5050483;28;21028;-70
2023/06/22 02:20:41;;;;;;;2.90;2.63;;;23.70;99.90;;;;;;5051816;28;20405;-70
2023/06/22 02:23:07;;;;;;;4.90;2.70;;;23.70;99.90;;;;;;5051809;28;20198;-70
2023/06/22 02:25:33;;;;;;;3.37;3.07;;;23.70;99.90;;;;;;5051409;28;20170;-70
2023/06/22 02:27:59;;;;;;;2.83;2.20;;;23.70;99.90;;;;;;5051792;28;20408;-70
2023/06/22 02:30:25;;;;;;;3.60;2.90;;;23.70;99.90;;;;;;5051722;28;20776;-70
2023/06/22 02:32:58;;;;;;;2.97;2.30;;;23.70;99.90;;;;;;5051710;28;20769;-70
2023/06/22 02:35:35;;;;;;;3.27;2.33;;;23.70;99.90;;;;;;5051409;28;20167;-70
2023/06/22 02:38:02;;;;;;;3.10;2.10;;;23.70;99.90;;;;;;5051634;28;20514;-71
2023/06/22 02:40:31;;;;;;;3.53;2.27;;;23.60;99.90;;;;;;5051642;28;20402;-70
2023/06/22 02:43:01;;;;;;;4.40;2.77;;;23.70;99.90;;;;;;5051569;28;20401;-70
2023/06/22 02:45:27;;;;;;;3.43;2.70;;;23.70;99.90;;;;;;5050016;28;20571;-70
2023/06/22 02:47:52;;;;;;;3.40;2.80;;;23.70;99.90;;;;;;5051592;28;20453;-70
2023/06/22 02:50:18;;;;;;;2.60;2.40;;;23.60;99.90;;;;;;5052979;28;20653;-70
2023/06/22 02:52:43;;;;;;;2.63;2.43;;;23.60;99.90;;;;;;5055483;28;20547;-70
2023/06/22 02:55:09;;;;;;;4.57;2.73;;;23.60;99.90;;;;;;5055161;28;20162;-70
2023/06/22 02:57:34;;;;;;;2.60;2.40;;;23.60;99.90;;;;;;5055177;28;20249;-70
2023/06/22 03:00:02;;;;;;;3.83;2.83;;;23.60;99.90;;;;;;5055354;28;20635;-70
2023/06/22 03:02:27;;;;;;;2.90;2.47;;;23.60;99.90;;;;;;5055210;28;20166;-70
2023/06/22 03:04:53;;;;;;;2.80;2.40;;;23.60;99.90;;;;;;5055116;28;20405;-70
2023/06/22 03:07:20;;;;;;;4.20;3.10;;;23.60;99.90;;;;;;5054965;28;20293;-70
2023/06/22 03:09:45;;;;;;;3.53;2.73;;;23.50;99.90;;;;;;5055197;28;20182;-70
2023/06/22 03:12:11;;;;;;;3.13;2.77;;;23.50;99.90;;;;;;5055189;28;20398;-70
2023/06/22 03:14:38;;;;;;;3.07;2.03;;;23.50;99.90;;;;;;5055065;28;20532;-70
2023/06/22 03:17:04;;;;;;;2.30;2.10;;;23.50;99.90;;;;;;5054686;28;20229;-70
2023/06/22 03:19:31;;;;;;;3.43;2.87;;;23.50;99.90;;;;;;5054971;28;20952;-70
2023/06/22 03:21:57;;;;;;;2.70;2.20;;;23.50;99.90;;;;;;5054940;28;20777;-70
2023/06/22 03:24:23;;;;;;;3.23;2.93;;;23.50;99.90;;;;;;5053625;28;20496;-70
2023/06/22 03:26:48;;;;;;;3.97;2.63;;;23.50;99.90;;;;;;5054432;28;20504;-70
2023/06/22 03:29:15;;;;;;;3.50;2.80;;;23.50;99.90;;;;;;5054812;28;20182;-70
2023/06/22 03:31:41;;;;;;;3.30;2.70;;;23.50;99.90;;;;;;5054676;28;20212;-70
2023/06/22 03:34:06;;;;;;;2.87;2.53;;;23.50;99.90;;;;;;5054704;28;20766;-70
2023/06/22 03:36:32;;;;;;;3.07;2.77;;;23.40;99.90;;;;;;5054344;28;20186;-70
2023/06/22 03:38:57;;;;;;;4.00;3.33;;;23.40;99.90;;;;;;5054533;28;20186;-70
2023/06/22 03:41:23;;;;;;;3.00;2.40;;;23.40;99.90;;;;;;5054518;28;20530;-70
2023/06/22 03:43:48;;;;;;;2.93;2.73;;;23.40;99.90;;;;;;5054505;28;20224;-70
2023/06/22 03:46:14;;;;;;;3.63;3.33;;;23.40;99.90;;;;;;5054090;28;20187;-70
2023/06/22 03:48:39;;;;;;;4.03;3.00;;;23.40;99.90;;;;;;5054471;28;20175;-70
2023/06/22 03:51:05;;;;;;;3.83;3.50;;;23.40;99.90;;;;;;5054389;28;20181;-71
2023/06/22 03:53:31;;;;;;;3.97;3.20;;;23.40;99.90;;;;;;5054341;28;20167;-70
2023/06/22 03:55:56;;;;;;;2.50;2.23;;;23.50;99.90;;;;;;5053918;28;20186;-71
2023/06/22 03:58:22;;;;;;;3.77;3.20;;;23.50;99.90;;;;;;5054224;28;20198;-70
2023/06/22 04:00:49;;;;;;;5.43;3.43;;;23.50;99.90;;;;;;5053824;28;20167;-70
2023/06/22 04:03:15;;;;;;;3.70;2.80;;;23.50;99.90;;;;;;5054242;28;20186;-70
2023/06/22 04:05:41;;;;;;;3.13;2.83;;;23.50;99.90;;;;;;5053820;28;20432;-70
2023/06/22 04:08:07;;;;;;;3.40;3.03;;;23.50;99.90;;;;;;5053964;28;20452;-69
2023/06/22 04:10:33;;;;;;;4.60;3.83;;;23.50;99.90;;;;;;5053985;28;20436;-70
2023/06/22 04:12:58;;;;;;;2.90;2.60;;;23.50;99.90;;;;;;5053987;28;20471;-70
2023/06/22 04:15:24;;;;;;;3.20;2.90;;;23.50;99.90;;;;;;5053514;28;20171;-70
2023/06/22 04:17:49;;;;;;;3.00;2.70;;;23.50;99.90;;;;;;5053595;28;20655;-70
2023/06/22 04:20:15;;;;;;;4.50;3.53;;;23.50;99.90;;;;;;5053813;28;20171;-70
2023/06/22 04:22:40;;;;;;;3.40;3.10;;;23.60;99.90;;;;;;5053697;28;20167;-69
2023/06/22 04:25:09;;;;;;;4.90;2.90;;;23.60;99.90;;;;;;5053417;28;20249;-70
2023/06/22 04:27:40;;;;;;;4.20;2.87;;;23.60;99.90;;;;;;5053649;28;20206;-69
2023/06/22 04:30:07;;;;;;;3.13;2.80;;;23.60;99.90;;;;;;5053902;28;20890;-68
2023/06/22 04:32:35;;;;;;;4.30;3.60;;;23.70;99.90;;;;;;5053615;28;20405;-69
2023/06/22 04:35:02;;;;;;;3.93;3.37;;;23.70;99.90;;;;;;5053211;28;20912;-69
2023/06/22 04:37:27;;;;;;;3.30;3.00;;;23.70;99.90;;;;;;5053422;28;20790;-69
2023/06/22 04:39:53;;;;;;;4.17;3.60;;;23.70;99.90;;;;;;5053442;28;20405;-69
2023/06/22 04:42:18;;;;;;;3.93;3.20;;;23.70;99.90;;;;;;5053404;28;20182;-69
2023/06/22 04:44:44;;;;;;;3.33;2.67;;;23.70;99.90;;;;;;5053275;28;20248;-70
2023/06/22 04:47:09;;;;;;;2.90;2.67;;;23.70;99.90;;;;;;5053085;28;20222;-69
2023/06/22 04:49:40;;;;;;;4.30;3.90;;;23.80;99.90;;;;;;5053275;28;20206;-70
2023/06/22 04:52:10;;;;;;;4.50;3.57;;;23.70;99.90;;;;;;5053210;28;20766;-69
2023/06/22 04:54:40;;;;;;;5.23;4.50;;;23.70;99.90;;;;;;5053193;28;20410;-69
2023/06/22 04:57:10;;;;;;;6.70;4.03;;;23.70;99.90;;;;;;5052899;28;20460;-69
2023/06/22 04:59:38;;;;;;;4.27;2.90;;;23.60;99.90;;;;;;5052988;28;20599;-69
2023/06/22 05:02:05;;;;;;;4.90;3.07;;;23.70;99.90;;;;;;5053022;28;20414;-69
2023/06/22 05:04:31;;;;;;;6.73;3.47;;;23.70;99.90;;;;;;5053020;28;20420;-70
2023/06/22 05:06:58;;;;;;;4.67;3.17;;;23.80;99.90;;;;;;5052498;28;20535;-69
2023/06/22 05:09:24;;;;;;;4.23;3.60;;;23.80;99.90;;;;;;5052969;28;20397;-69
2023/06/22 05:11:51;;;;;;;4.50;3.90;;;23.80;99.90;;;;;;5052848;28;20409;-70
2023/06/22 05:14:17;;;;;;;3.07;2.77;;;23.70;99.90;;;;;;5052145;28;20801;-69
2023/06/22 05:16:43;;;;;;;5.67;3.67;;;23.70;99.90;;;;;;5052526;28;20520;-69
2023/06/22 05:19:09;;;;;;;3.07;2.70;;;23.70;99.90;;;;;;5051421;28;20306;-70
2023/06/22 05:21:34;;;;;;;3.40;3.07;;;23.60;99.90;;;;;;5052732;28;20193;-69
2023/06/22 05:24:02;;;;;;;3.37;3.07;;;23.60;99.90;;;;;;5052770;28;20489;-68
2023/06/22 05:26:28;;;;;;;4.30;3.90;;;23.60;99.90;;;;;;5052325;28;20429;-69
2023/06/22 05:28:54;;;;;;;4.10;3.50;;;23.50;99.90;;;;;;5052541;28;20409;-69
2023/06/22 05:31:20;;;;;;;7.73;3.70;;;23.50;99.90;;;;;;5052465;28;20976;-69
2023/06/22 05:33:47;;;;;;;3.67;3.17;;;23.50;99.90;;;;;;5052509;28;20224;-69
2023/06/22 05:36:14;;;;;;;4.50;3.20;;;23.50;99.90;;;;;;5052137;28;20429;-69
2023/06/22 05:38:39;;;;;;;3.73;3.20;;;23.60;99.90;;;;;;5052310;28;20961;-70
2023/06/22 05:41:05;;;;;;;4.00;3.60;;;23.70;99.90;;;;;;5052404;28;20466;-69
2023/06/22 05:43:31;;;;;;;4.00;3.63;;;23.70;99.90;;;;;;5052364;28;20409;-69
2023/06/22 05:45:58;;;;;;;4.60;3.50;;;23.80;99.90;;;;;;5051993;28;20424;-70
2023/06/22 05:48:23;;;;;;;7.30;4.10;;;23.90;99.90;;;;;;5051297;28;20937;-70
2023/06/22 05:50:49;;;;;;;5.90;3.60;;;23.90;99.90;;;;;;5051910;28;20414;-69
2023/06/22 05:53:15;;;;;;;3.90;3.20;;;24.00;99.90;;;;;;5052097;28;20179;-70
2023/06/22 05:55:40;;;;;;;4.63;3.50;;;24.10;99.90;;;;;;5051687;28;20187;-70
2023/06/22 05:58:06;;;;;;;3.50;3.20;;;24.20;99.90;;;;;;5052033;28;20288;-69
2023/06/22 06:00:32;;;;;;;4.17;3.13;;;24.30;99.90;;;;;;5051997;28;20195;-70
2023/06/22 06:03:03;;;;;;;4.67;4.17;;;24.30;99.90;;;;;;5051914;28;20163;-69
2023/06/22 06:05:29;;;;;;;4.00;3.37;;;24.40;99.90;;;;;;5051649;28;20562;-69
2023/06/22 06:07:55;;;;;;;4.40;4.00;;;24.50;99.90;;;;;;5051725;28;20437;-70
2023/06/22 06:10:21;;;;;;;5.50;3.73;;;24.60;99.90;;;;;;5051883;28;20505;-70
2023/06/22 06:12:46;;;;;;;4.37;3.97;;;24.70;99.90;;;;;;5051792;28;20624;-69
2023/06/22 06:15:12;;;;;;;6.90;3.60;;;24.90;99.90;;;;;;5051560;28;20167;-69
2023/06/22 06:17:46;;;;;;;3.50;3.20;;;25.20;99.90;;;;;;5051722;28;20240;-69
2023/06/22 06:20:12;;;;;;;3.70;3.40;;;25.90;99.90;;;;;;5051852;28;20246;-71
2023/06/22 06:22:37;;;;;;;8.23;3.77;;;26.70;99.90;;;;;;5051925;28;20484;-70
2023/06/22 06:25:04;;;;;;;5.97;3.80;;;27.90;99.90;;;;;;5054214;28;20166;-70
2023/06/22 06:27:30;;;;;;;3.70;3.40;;;29.00;99.90;;;;;;5055963;28;20186;-70
2023/06/22 06:29:55;;;;;;;4.70;3.60;;;29.70;99.90;;;;;;5055922;28;20409;-69
2023/06/22 06:32:21;;;;;;;4.17;3.87;;;30.00;98.10;;;;;;5055767;28;20697;-69
2023/06/22 06:34:46;;;;;;;4.40;3.90;;;30.00;94.70;;;;;;5055704;28;20686;-69
2023/06/22 06:37:12;;;;;;;4.87;3.70;;;29.80;93.20;;;;;;5054135;28;20198;-69
2023/06/22 06:39:37;;;;;;;4.10;3.27;;;29.70;90.50;;;;;;5055536;28;20206;-69
2023/06/22 06:42:04;;;;;;;4.67;3.70;;;29.60;90.50;;;;;;5055511;28;20170;-70
2023/06/22 06:44:30;;;;;;;3.80;3.50;;;29.40;90.50;;;;;;5054333;28;20171;-71
2023/06/22 06:46:55;;;;;;;4.37;3.97;;;29.30;90.90;;;;;;5055228;28;20425;-70
2023/06/22 06:49:21;;;;;;;4.20;3.70;;;29.30;91.60;;;;;;5055650;28;20189;-70
2023/06/22 06:51:46;;;;;;;3.87;3.57;;;29.50;91.40;;;;;;5054285;28;20743;-70
2023/06/22 06:54:12;;;;;;;3.63;3.33;;;29.90;90.30;;;;;;5055492;28;20178;-70
2023/06/22 06:56:38;;;;;;;5.40;3.63;;;30.40;85.80;;;;;;5055317;28;20202;-70
2023/06/22 06:59:03;;;;;;;3.50;3.20;;;30.90;81.30;;;;;;5055494;28;20195;-69
2023/06/22 07:01:33;;;;;;;4.70;3.80;;;31.30;78.70;;;;;;5055452;28;20167;-70
2023/06/22 07:03:59;;;;;;;14.73;11.33;;;31.50;78.40;;;;;;5055653;28;20184;-69
2023/06/22 07:06:28;;;;;;;21.20;10.53;;;31.90;76.20;;;;;;5055012;28;20420;-69
2023/06/22 07:08:55;;;;;;;6.10;4.67;;;32.20;72.70;;;;;;5055323;28;20190;-70
2023/06/22 07:11:20;;;;;;;5.60;5.10;;;32.20;70.40;;;;;;5055189;28;20413;-69
2023/06/22 07:13:46;;;;;;;5.13;4.27;;;32.00;69.00;;;;;;5055049;28;20416;-70
2023/06/22 07:16:21;;;;;;;4.33;3.93;;;31.80;68.30;;;;;;5054770;28;20643;-70
2023/06/22 07:18:46;;;;;;;4.93;4.43;;;31.60;68.70;;;;;;5055223;28;20259;-70
2023/06/22 07:21:12;;;;;;;13.23;6.73;;;31.80;67.30;;;;;;5055061;28;20448;-70
2023/06/22 07:23:37;;;;;;;16.83;9.77;;;32.40;68.30;;;;;;5055049;28;20527;-70
2023/06/22 07:26:03;;;;;;;10.13;6.57;;;33.30;65.80;;;;;;5055124;28;20191;-68
2023/06/22 07:28:30;;;;;;;7.13;5.03;;;34.50;66.80;;;;;;5054953;28;20178;-67
2023/06/22 07:30:56;;;;;;;5.37;4.87;;;35.80;63.30;;;;;;5054790;28;20175;-67
2023/06/22 07:33:22;;;;;;;5.53;5.03;;;36.50;58.80;;;;;;5055156;28;20413;-68
2023/06/22 07:35:48;;;;;;;6.03;5.63;;;37.00;56.10;;;;;;5054380;28;20408;-67
2023/06/22 07:38:14;;;;;;;5.20;4.80;;;37.70;54.40;;;;;;5054939;28;20546;-66
2023/06/22 07:40:41;;;;;;;6.17;5.67;;;38.00;52.30;;;;;;5054577;28;20890;-68
2023/06/22 07:43:07;;;;;;;6.30;5.50;;;38.50;51.00;;;;;;5055106;28;20368;-71
2023/06/22 07:45:34;;;;;;;5.37;4.67;;;39.00;49.30;;;;;;5054335;28;20463;-71
2023/06/22 07:48:00;;;;;;;6.00;5.40;;;38.80;48.10;;;;;;5054624;28;20566;-72
2023/06/22 07:50:26;;;;;;;5.57;5.07;;;38.80;47.80;;;;;;5055164;28;20401;-72
2023/06/22 07:52:52;;;;;;;6.17;5.57;;;39.30;47.60;;;;;;5055335;28;20178;-72
2023/06/22 07:55:18;;;;;;;7.23;6.20;;;39.90;47.00;;;;;;5055136;28;20182;-72
2023/06/22 07:57:43;;;;;;;6.30;5.80;;;40.40;45.60;;;;;;5054118;28;20473;-66
2023/06/22 08:00:17;;;;;;;7.50;5.43;;;40.80;44.50;;;;;;5054262;28;20171;-70
2023/06/22 08:02:44;;;;;;;6.63;5.50;;;41.30;43.20;;;;;;5054406;28;20174;-71
2023/06/22 08:05:11;;;;;;;5.73;5.33;;;41.70;42.00;;;;;;5053957;28;20827;-69
2023/06/22 08:07:37;;;;;;;5.20;4.80;;;42.10;41.70;;;;;;5053915;28;20423;-67
2023/06/22 08:10:03;;;;;;;6.47;5.23;;;42.60;40.80;;;;;;5053967;28;20926;-68
2023/06/22 08:12:29;;;;;;;5.80;5.30;;;43.20;40.40;;;;;;5054126;28;20803;-71
2023/06/22 08:14:56;;;;;;;5.67;5.30;;;43.90;38.80;;;;;;5053882;28;20468;-69
2023/06/22 08:17:22;;;;;;;9.20;5.97;;;44.60;38.30;;;;;;5054216;28;20605;-71
2023/06/22 08:19:48;;;;;;;5.77;5.27;;;45.20;36.60;;;;;;5053893;28;20457;-70
2023/06/22 08:22:14;;;;;;;5.90;5.40;;;45.60;35.90;;;;;;5054017;28;20475;-70
2023/06/22 08:24:39;;;;;;;6.63;6.13;;;46.10;35.80;;;;;;5053812;28;20163;-70
2023/06/22 08:27:14;;;;;;;6.13;5.53;;;45.90;34.20;;;;;;5053795;28;20777;-71
2023/06/22 08:29:42;;;;;;;6.30;5.80;;;45.80;34.10;;;;;;5054086;28;20578;-70
2023/06/22 08:32:09;;;;;;;7.97;7.27;;;46.10;34.30;;;;;;5053950;28;20392;-70
2023/06/22 08:34:34;;;;;;;5.63;5.23;;;46.70;33.50;;;;;;5053586;28;20443;-71
2023/06/22 08:37:00;;;;;;;6.50;6.10;;;47.20;33.60;;;;;;5053354;28;20425;-70
2023/06/22 08:39:26;;;;;;;5.93;5.43;;;47.60;33.10;;;;;;5053606;28;20199;-70
2023/06/22 08:41:52;;;;;;;7.77;5.67;;;47.70;31.80;;;;;;5053850;28;20894;-71
2023/06/22 08:44:19;;;;;;;6.63;5.93;;;47.70;30.90;;;;;;5053725;28;20250;-71
2023/06/22 08:46:45;;;;;;;6.00;5.50;;;47.70;31.30;;;;;;5053202;28;20199;-71
2023/06/22 08:49:10;;;;;;;6.53;6.03;;;47.70;31.30;;;;;;5052594;28;20388;-70
2023/06/22 08:51:36;;;;;;;6.50;6.00;;;47.60;31.10;;;;;;5053391;28;20580;-70
2023/06/22 08:54:01;;;;;;;6.37;5.87;;;47.50;31.10;;;;;;5053045;28;20839;-70
2023/06/22 08:56:27;;;;;;;5.70;5.30;;;47.10;30.80;;;;;;5052727;28;20183;-70
2023/06/22 08:58:52;;;;;;;6.47;5.97;;;46.60;31.50;;;;;;5053295;28;20675;-70
2023/06/22 09:01:18;;;;;;;5.33;4.93;;;46.70;32.40;;;;;;5053404;28;20167;-70
2023/06/22 09:03:53;;;;;;;6.10;5.50;;;46.90;31.90;;;;;;5053456;28;20228;-70
2023/06/22 09:06:22;;;;;;;4.60;4.30;;;46.60;31.30;;;;;;5052982;28;20182;-70
2023/06/22 09:08:48;;;;;;;6.90;6.30;;;46.10;32.10;;;;;;5053157;28;20495;-70
2023/06/22 09:11:14;;;;;;;5.90;5.50;;;45.40;31.80;;;;;;5052999;28;20573;-70
2023/06/22 09:13:40;;;;;;;6.23;5.63;;;44.70;32.60;;;;;;5053075;28;20432;-70
2023/06/22 09:16:06;;;;;;;6.10;5.60;;;44.50;32.80;;;;;;5052694;28;20186;-70
2023/06/22 09:18:32;;;;;;;6.60;6.00;;;44.40;33.00;;;;;;5052418;28;20183;-70
2023/06/22 09:20:57;;;;;;;6.30;5.70;;;44.30;32.90;;;;;;5052823;28;20385;-70
2023/06/22 09:23:23;;;;;;;7.67;7.00;;;44.80;33.00;;;;;;5052935;28;20624;-70
2023/06/22 09:25:48;;;;;;;7.60;6.90;;;45.40;32.90;;;;;;5052250;28;20222;-70
2023/06/22 09:28:14;;;;;;;8.23;7.33;;;45.80;32.40;;;;;;5052709;28;20233;-70
2023/06/22 09:30:40;;;;;;;8.37;7.60;;;45.90;31.90;;;;;;5052615;28;20540;-70
2023/06/22 09:33:06;;;;;;;8.23;6.73;;;45.70;31.80;;;;;;5052596;28;20410;-70
2023/06/22 09:35:31;;;;;;;6.77;5.93;;;45.30;32.00;;;;;;5052294;28;20159;-70
2023/06/22 09:37:57;;;;;;;9.93;7.27;;;45.30;32.60;;;;;;5052552;28;20194;-70
2023/06/22 09:40:22;;;;;;;6.63;6.03;;;45.30;32.20;;;;;;5052218;28;20189;-70
2023/06/22 09:42:48;;;;;;;7.03;6.00;;;45.10;32.30;;;;;;5052642;28;20243;-70
2023/06/22 09:45:13;;;;;;;5.87;5.43;;;44.70;32.30;;;;;;5052220;28;20202;-70
2023/06/22 09:47:39;;;;;;;7.03;6.43;;;44.10;32.20;;;;;;5052310;28;20178;-70
2023/06/22 09:50:05;;;;;;;8.10;7.37;;;43.30;32.80;;;;;;5052156;28;20174;-70
2023/06/22 09:52:31;;;;;;;6.33;5.77;;;42.70;33.50;;;;;;5052225;28;20194;-70
2023/06/22 09:54:56;;;;;;;7.00;6.40;;;42.20;34.10;;;;;;5051977;28;20409;-70
2023/06/22 09:57:22;;;;;;;6.43;5.83;;;41.70;34.80;;;;;;5052145;28;20715;-70
2023/06/22 09:59:47;;;;;;;6.30;5.80;;;40.90;35.30;;;;;;5051646;28;20198;-70
2023/06/22 10:02:13;;;;;;;7.10;6.30;;;40.00;35.90;;;;;;5052028;28;20163;-70
2023/06/22 10:04:40;;;;;;;6.50;5.87;;;38.90;37.10;;;;;;5052031;28;20163;-70
2023/06/22 10:07:06;;;;;;;7.43;5.90;;;37.70;38.40;;;;;;5051496;28;20198;-70
2023/06/22 10:09:32;;;;;;;6.93;6.33;;;36.70;39.60;;;;;;5052122;28;20441;-69
2023/06/22 10:11:58;;;;;;;6.20;5.60;;;35.70;40.80;;;;;;5052251;28;20818;-70
2023/06/22 10:14:24;;;;;;;6.73;6.00;;;34.70;42.40;;;;;;5051941;28;20175;-72
2023/06/22 10:16:52;;;;;;;6.37;5.77;;;33.60;43.90;;;;;;5051437;28;20226;-71
2023/06/22 10:19:17;;;;;;;6.13;5.53;;;32.80;45.20;;;;;;5051747;28;20949;-70
2023/06/22 10:21:43;;;;;;;6.60;5.83;;;32.10;47.10;;;;;;5051812;28;20406;-70
2023/06/22 10:24:09;;;;;;;7.13;6.47;;;31.50;50.40;;;;;;5050513;28;20163;-69
2023/06/22 10:26:35;;;;;;;6.90;6.07;;;31.00;54.50;;;;;;5051552;28;20194;-69
2023/06/22 10:29:02;;;;;;;7.23;6.27;;;30.20;64.10;;;;;;5051736;28;20405;-69
2023/06/22 10:31:28;;;;;;;7.70;7.00;;;29.90;72.30;;;;;;5051409;28;20847;-69
2023/06/22 10:33:54;;;;;;;7.77;6.97;;;29.50;80.40;;;;;;5051618;28;20501;-69
2023/06/22 10:36:21;;;;;;;7.50;6.80;;;28.90;99.90;;;;;;5051243;28;20191;-69
2023/06/22 10:38:47;;;;;;;7.93;6.90;;;28.50;99.90;;;;;;5051588;28;20515;-70
2023/06/22 10:41:13;;;;;;;10.57;7.10;;;28.10;99.90;;;;;;5051759;28;20416;-69
2023/06/22 10:43:39;;;;;;;8.47;6.93;;;27.80;99.90;;;;;;5051576;28;20409;-69
2023/06/22 10:46:04;;;;;;;11.97;8.90;;;27.50;99.90;;;;;;5051341;28;20425;-69
2023/06/22 10:48:30;;;;;;;7.63;6.47;;;27.10;99.90;;;;;;5051262;28;20177;-69
2023/06/22 10:50:55;;;;;;;11.33;7.50;;;26.80;99.90;;;;;;5051443;28;20531;-69
2023/06/22 10:53:21;;;;;;;8.53;6.40;;;26.70;99.90;;;;;;5051659;28;20174;-69
2023/06/22 10:55:47;;;;;;;8.17;7.37;;;26.50;99.90;;;;;;5051443;28;20225;-69
2023/06/22 10:58:12;;;;;;;7.53;6.80;;;26.40;99.90;;;;;;5051870;28;20675;-69
2023/06/22 11:00:38;;;;;;;8.50;7.20;;;26.30;99.90;;;;;;5051677;28;20175;-69
2023/06/22 11:03:03;;;;;;;6.77;6.07;;;26.10;99.90;;;;;;5051658;28;20613;-69
2023/06/22 11:05:29;;;;;;;9.67;7.30;;;26.00;99.90;;;;;;5051130;28;20163;-69
2023/06/22 11:07:54;;;;;;;7.37;6.70;;;25.90;99.90;;;;;;5051447;28;20193;-69
2023/06/22 11:10:20;;;;;;;7.67;6.97;;;25.80;99.90;;;;;;5051137;28;20167;-69
2023/06/22 11:12:46;;;;;;;11.03;8.17;;;25.70;99.90;;;;;;5054878;28;20167;-69
2023/06/22 11:15:11;;;;;;;9.37;7.53;;;25.70;99.90;;;;;;5054906;28;20193;-68
2023/06/22 11:17:37;;;;;;;8.07;7.27;;;25.70;99.90;;;;;;5054948;28;20273;-68
2023/06/22 11:20:10;;;;;;;7.43;6.40;;;25.80;99.90;;;;;;5055144;28;20160;-68
2023/06/22 11:22:36;;;;;;;8.83;7.10;;;25.90;99.90;;;;;;5054799;28;20500;-68
2023/06/22 11:25:02;;;;;;;7.37;6.30;;;26.10;99.90;;;;;;5054715;28;20402;-68
2023/06/22 11:27:28;;;;;;;10.30;7.27;;;26.30;99.90;;;;;;5054864;28;21103;-68
2023/06/22 11:29:53;;;;;;;8.13;7.33;;;26.50;99.90;;;;;;5054983;28;20194;-68
2023/06/22 11:32:19;;;;;;;10.73;8.50;;;26.80;99.90;;;;;;5054793;28;20418;-68
2023/06/22 11:34:44;;;;;;;11.00;7.37;;;27.00;99.90;;;;;;5054662;28;20507;-68
2023/06/22 11:37:10;;;;;;;11.03;7.67;;;27.30;99.90;;;;;;5054385;28;20278;-68
2023/06/22 11:39:35;;;;;;;11.37;7.47;;;27.90;99.90;;;;;;5054542;28;20190;-69
2023/06/22 11:42:01;;;;;;;8.57;7.70;;;29.10;99.90;;;;;;5054605;28;20164;-69
2023/06/22 11:44:26;;;;;;;8.57;7.70;;;30.20;99.90;;;;;;5054598;28;20221;-68
2023/06/22 11:46:52;;;;;;;10.60;6.77;;;30.50;99.90;;;;;;5054157;28;20816;-69
2023/06/22 11:49:17;;;;;;;8.47;7.57;;;30.40;99.90;;;;;;5054497;28;20174;-68
2023/06/22 11:51:43;;;;;;;7.13;6.43;;;30.10;99.90;;;;;;5054395;28;20224;-68
2023/06/22 11:54:08;;;;;;;7.90;7.07;;;29.80;99.90;;;;;;5054401;28;20216;-68
2023/06/22 11:56:34;;;;;;;11.30;8.73;;;29.50;99.90;;;;;;5053947;28;20240;-70
2023/06/22 11:58:59;;;;;;;11.73;9.23;;;29.30;99.90;;;;;;5054181;28;20191;-69
2023/06/22 12:01:25;;;;;;;7.57;6.00;;;29.30;99.90;;;;;;5054239;28;20697;-69
2023/06/22 12:03:50;;;;;;;6.47;5.87;;;29.40;99.90;;;;;;5053972;28;20297;-69
2023/06/22 12:06:16;;;;;;;8.10;7.30;;;29.70;99.90;;;;;;5053824;28;20187;-69
2023/06/22 12:08:41;;;;;;;9.37;7.73;;;30.20;99.90;;;;;;5053956;28;20186;-69
2023/06/22 12:11:07;;;;;;;8.43;7.63;;;30.80;99.90;;;;;;5053963;28;20171;-69
2023/06/22 12:13:32;;;;;;;9.13;7.90;;;31.20;99.90;;;;;;5053888;28;20171;-69
2023/06/22 12:15:58;;;;;;;9.10;7.10;;;31.50;99.90;;;;;;5053632;28;20688;-69
2023/06/22 12:18:24;;;;;;;7.80;7.10;;;31.70;99.90;;;;;;5053809;28;20194;-70
2023/06/22 12:20:49;;;;;;;9.77;8.17;;;31.80;99.90;;;;;;5053840;28;20202;-70
2023/06/22 12:23:15;;;;;;;8.33;7.53;;;32.00;99.90;;;;;;5053792;28;20225;-70
2023/06/22 12:25:40;;;;;;;8.50;7.63;;;32.10;99.90;;;;;;5053487;28;20179;-70
2023/06/22 12:28:06;;;;;;;10.00;8.30;;;32.10;99.90;;;;;;5053707;28;20171;-70
2023/06/22 12:30:33;;;;;;;11.13;9.90;;;32.10;99.90;;;;;;5053648;28;20167;-70
2023/06/22 12:32:59;;;;;;;8.90;8.00;;;32.20;99.90;;;;;;5053651;28;20163;-70
2023/06/22 12:35:24;;;;;;;9.97;8.87;;;32.30;99.90;;;;;;5053206;28;20455;-70
2023/06/22 12:37:50;;;;;;;9.07;8.10;;;32.20;99.90;;;;;;5053480;28;20171;-70
2023/06/22 12:40:15;;;;;;;9.67;8.67;;;32.10;99.90;;;;;;5053545;28;20531;-70
2023/06/22 12:42:42;;;;;;;8.90;8.07;;;32.10;99.90;;;;;;5053529;28;20543;-70